Ana Sayfa
METAR-TAF:

METAR-TAF

Havaalanları :

Rarotonga, Cook Adaları

Enlem: 21-12S, Boylam: 159-49W, yükseklik: 7 m

Güncel hava durumu gözlemi

Rapor saat 01:00 UTC de 1 saat ve 31 dakika önce yapıldı.
Rüzgar güney/güneybatıdan 12 kt
Sıcaklık 26°C
Nem 79%
Basınç 1008 hPa
Görüş mesafesi 10 km veya daha fazla
2200 ft yükseklikte parçalı bulutlu
5000 ft yükseklikte parçalı bulutlu
10000 ft yükseklikte parçalı çok bulutlu

METAR: NCRG 270100Z 21012KT 9999 SCT022 SCT050 BKN100 26/22 Q1008

Saat: 16:31 (02:31 UTC)

Tahmin

Rapor saat 23:21 UTC de 3 saat ve 10 dakika önce yapıldı.
Ayın 27'si saat 00 UTC'den ayın 27'si saat 24 UTC'ye kadar geçerli Tahmin
Rüzgar batı/güneybatıdan 10 kt
Görüş mesafesi 10 km veya daha fazla
2000 ft yükseklikte parçalı bulutlu

TAF: NCRG 262321Z 2700/2724 25010KT 9999 SCT020

4.000'den fazla havaalanı için hava durumu gözlemleri ve tahminleri (METAR ve TAF raporları).

Kullanılabilir istasyonlar harita üzerinde sarı ve kırmızı noktalarla gösterilir.

İstasyonun adını görmek için fareyi noktanın üzerinde gezdirin.

Sonrasında hava gözlem ve tahminlerini görmek için tıklayın.

Haritayı değiştirmek için: yaklaştırmak için siyah artı işaretli yeşil düğmeye ve uzaklaştırmak için de eksi işaretli düğmeye hızla tıklayın; bitişik haritalar için yeşil okları kullanın.


METAR-TAF: